createdAt,value
2023-01-17T00:02:02.293Z,99110.28
2023-01-17T00:04:48.089Z,99115.28
2023-01-17T00:07:35.756Z,99110.72
2023-01-17T00:10:07.464Z,99114.91
2023-01-17T00:12:34.829Z,99121.66
2023-01-17T00:15:02.159Z,99116.25
2023-01-17T00:17:29.955Z,99118.72
2023-01-17T00:20:15.985Z,99122.03
2023-01-17T00:23:03.124Z,99109.69
2023-01-17T00:25:58.916Z,99109.59
2023-01-17T00:28:26.778Z,99107.78
2023-01-17T00:30:53.986Z,99103.47
2023-01-17T00:33:22.139Z,99093.00
2023-01-17T00:35:48.878Z,99094.72
2023-01-17T00:38:18.596Z,99097.34
2023-01-17T00:40:46.447Z,99095.63
2023-01-17T00:43:33.230Z,99092.06
2023-01-17T00:46:18.502Z,99096.41
2023-01-17T00:49:04.190Z,99101.66
2023-01-17T00:51:51.177Z,99104.25
2023-01-17T00:54:36.335Z,99101.66
2023-01-17T00:57:22.839Z,99094.59
2023-01-17T01:00:08.324Z,99094.59
2023-01-17T01:02:54.373Z,99091.97
2023-01-17T01:05:39.961Z,99091.91
2023-01-17T01:08:41.333Z,99093.59
2023-01-17T01:11:29.631Z,99095.25
2023-01-17T01:14:14.909Z,99094.41
2023-01-17T01:17:00.293Z,99079.56
2023-01-17T01:19:45.642Z,99079.53
2023-01-17T01:22:30.821Z,99082.94
2023-01-17T01:25:16.511Z,99076.00
2023-01-17T01:28:02.104Z,99075.91
2023-01-17T01:30:47.796Z,99082.00
2023-01-17T01:33:21.161Z,99075.00
2023-01-17T01:35:53.919Z,99079.22
2023-01-17T01:38:23.350Z,99067.78
2023-01-17T01:40:55.685Z,99073.78
2023-01-17T01:43:50.329Z,99065.88
2023-01-17T01:46:32.256Z,99048.31
2023-01-17T01:49:19.112Z,99050.84
2023-01-17T01:51:52.650Z,99051.69
2023-01-17T01:54:28.407Z,99053.41
2023-01-17T01:56:59.497Z,99053.34
2023-01-17T01:59:26.838Z,99037.63
2023-01-17T02:01:56.154Z,99043.63
2023-01-17T02:04:23.506Z,99054.00
2023-01-17T02:06:56.020Z,99047.81
2023-01-17T02:09:23.816Z,99039.88
2023-01-17T02:11:50.851Z,99042.47
2023-01-17T02:14:19.433Z,99040.63
2023-01-17T02:16:58.032Z,99038.81
2023-01-17T02:19:39.857Z,99035.22
2023-01-17T02:22:32.402Z,99027.28
2023-01-17T02:25:39.188Z,99025.41
2023-01-17T02:28:32.930Z,99021.03
2023-01-17T02:31:09.204Z,99015.78
2023-01-17T02:34:17.237Z,99009.59
2023-01-17T02:36:51.300Z,99011.28
2023-01-17T02:39:22.845Z,99010.44
2023-01-17T02:41:56.398Z,99005.25
2023-01-17T02:44:24.060Z,99009.69
2023-01-17T02:46:53.772Z,99003.59
2023-01-17T02:49:25.282Z,98999.31
2023-01-17T02:52:13.343Z,99003.63
2023-01-17T02:55:14.820Z,98993.31
2023-01-17T02:57:44.261Z,98990.75
2023-01-17T03:00:14.107Z,98993.44
2023-01-17T03:02:51.240Z,98990.03
2023-01-17T03:05:25.731Z,98990.03
2023-01-17T03:07:53.856Z,99003.16
2023-01-17T03:10:21.855Z,98990.97
2023-01-17T03:12:48.558Z,98993.63
2023-01-17T03:15:17.682Z,99001.41
2023-01-17T03:17:50.738Z,98996.16
2023-01-17T03:20:17.714Z,99001.38
2023-01-17T03:22:44.356Z,99001.38
2023-01-17T03:25:11.065Z,98995.16
2023-01-17T03:27:37.737Z,98989.91
2023-01-17T03:30:05.102Z,98990.75
2023-01-17T03:32:31.764Z,98992.47
2023-01-17T03:34:58.449Z,98990.66
2023-01-17T03:37:25.249Z,98995.91
2023-01-17T03:39:51.924Z,99002.84
2023-01-17T03:42:18.608Z,99008.03
2023-01-17T03:44:45.251Z,98993.22
2023-01-17T03:47:12.448Z,98996.66
2023-01-17T03:49:40.124Z,98996.66
2023-01-17T03:52:07.635Z,98983.53
2023-01-17T03:54:34.316Z,98986.16
2023-01-17T03:57:00.970Z,98987.84
2023-01-17T03:59:27.651Z,98987.00
2023-01-17T04:01:54.396Z,98981.75
2023-01-17T04:04:21.167Z,98989.56
2023-01-17T04:06:48.111Z,98991.28
2023-01-17T04:09:14.884Z,98990.41
2023-01-17T04:11:41.510Z,98988.69
2023-01-17T04:14:08.171Z,98988.69
2023-01-17T04:16:36.338Z,98987.75
2023-01-17T04:19:03.066Z,98989.44
2023-01-17T04:21:29.988Z,98984.22
2023-01-17T04:23:56.674Z,98981.53
2023-01-17T04:26:23.414Z,98983.28
2023-01-17T04:28:50.085Z,98990.25
2023-01-17T04:31:17.087Z,98971.91
2023-01-17T04:33:43.949Z,98972.81
2023-01-17T04:36:10.792Z,98975.41
2023-01-17T04:38:37.480Z,98973.59
2023-01-17T04:41:04.361Z,98977.03
2023-01-17T04:43:31.124Z,98973.50
2023-01-17T04:45:58.253Z,98966.56
2023-01-17T04:48:25.507Z,98963.94
2023-01-17T04:50:52.133Z,98971.81
2023-01-17T04:53:18.755Z,98966.56
2023-01-17T04:55:46.485Z,98961.31
2023-01-17T04:58:13.127Z,98956.06
2023-01-17T05:00:39.777Z,98959.53
2023-01-17T05:03:07.277Z,98956.06
2023-01-17T05:05:33.978Z,98961.31
2023-01-17T05:08:00.709Z,98967.44
2023-01-17T05:10:27.379Z,98965.66
2023-01-17T05:12:58.531Z,98967.44
2023-01-17T05:15:26.571Z,98962.28
2023-01-17T05:17:54.132Z,98970.91
2023-01-17T05:20:22.503Z,98970.91
2023-01-17T05:22:56.039Z,98961.34
2023-01-17T05:25:27.903Z,98961.31
2023-01-17T05:27:54.808Z,98963.97
2023-01-17T05:30:22.479Z,98963.13
2023-01-17T05:32:50.490Z,98959.56
2023-01-17T05:35:19.780Z,98963.06
2023-01-17T05:37:50.597Z,98965.75
2023-01-17T05:40:21.874Z,98968.38
2023-01-17T05:42:50.236Z,98980.56
2023-01-17T05:45:19.888Z,98973.59
2023-01-17T05:47:48.352Z,98969.28
2023-01-17T05:50:18.500Z,98977.16
2023-01-17T05:53:00.026Z,98970.19
2023-01-17T05:55:28.194Z,98962.38
2023-01-17T05:57:55.513Z,98962.38
2023-01-17T06:00:23.608Z,98966.78
2023-01-17T06:02:55.860Z,98968.47
2023-01-17T06:05:23.359Z,98969.31
2023-01-17T06:07:50.169Z,98967.63
2023-01-17T06:10:19.058Z,98970.19
2023-01-17T06:12:46.988Z,98964.09
2023-01-17T06:15:15.624Z,98971.94
2023-01-17T06:17:42.675Z,98972.81
2023-01-17T06:20:10.611Z,98972.88
2023-01-17T06:22:37.674Z,98972.88
2023-01-17T06:25:04.686Z,98978.97
2023-01-17T06:27:31.317Z,98975.50
2023-01-17T06:29:58.016Z,98973.81
2023-01-17T06:32:24.667Z,98980.81
2023-01-17T06:34:51.315Z,98982.63
2023-01-17T06:37:17.976Z,98970.44
2023-01-17T06:39:44.654Z,98973.91
2023-01-17T06:42:11.290Z,98968.59
2023-01-17T06:44:38.131Z,98974.69
2023-01-17T06:47:04.769Z,98968.59
2023-01-17T06:49:31.473Z,98958.09
2023-01-17T06:51:58.115Z,98957.22
2023-01-17T06:54:24.853Z,98950.22
2023-01-17T06:56:51.501Z,98942.38
2023-01-17T06:59:18.152Z,98942.38
2023-01-17T07:01:44.880Z,98948.47
2023-01-17T07:04:11.613Z,98942.38
2023-01-17T07:06:38.315Z,98944.09
2023-01-17T07:09:05.468Z,98944.09
2023-01-17T07:11:32.172Z,98938.84
2023-01-17T07:13:58.858Z,98935.34
2023-01-17T07:16:25.671Z,98931.88
2023-01-17T07:18:53.324Z,98937.97
2023-01-17T07:21:20.035Z,98931.88
2023-01-17T07:23:48.220Z,98937.00
2023-01-17T07:26:16.927Z,98929.09
2023-01-17T07:28:43.897Z,98930.81
2023-01-17T07:31:10.714Z,98924.72
2023-01-17T07:33:37.770Z,98930.81
2023-01-17T07:36:09.369Z,98921.16
2023-01-17T07:38:43.115Z,98920.25
2023-01-17T07:41:11.087Z,98917.63
2023-01-17T07:43:40.472Z,98919.34
2023-01-17T07:46:14.638Z,98911.53
2023-01-17T07:48:44.357Z,98915.91
2023-01-17T07:51:10.995Z,98908.97
2023-01-17T07:53:40.664Z,98903.72
2023-01-17T07:56:09.680Z,98888.88
2023-01-17T07:58:36.397Z,98902.91
2023-01-17T08:01:12.145Z,98895.88
2023-01-17T08:03:42.407Z,98898.50
2023-01-17T08:06:20.208Z,98896.75
2023-01-17T08:08:53.199Z,98892.44
2023-01-17T08:11:19.863Z,98909.09
2023-01-17T08:13:46.772Z,98896.09
2023-01-17T08:16:14.143Z,98895.28
2023-01-17T08:18:41.550Z,98901.44
2023-01-17T08:21:16.828Z,98893.66
2023-01-17T08:23:50.081Z,98888.41
2023-01-17T08:26:24.420Z,98892.84
2023-01-17T08:29:01.553Z,98885.94
2023-01-17T08:31:30.865Z,98886.84
2023-01-17T08:33:57.771Z,98888.63
2023-01-17T08:36:29.204Z,98886.13
2023-01-17T08:38:56.172Z,98893.13
2023-01-17T08:41:24.359Z,98883.69
2023-01-17T08:43:53.860Z,98884.69
2023-01-17T08:46:24.451Z,98891.78
2023-01-17T08:49:02.216Z,98898.81
2023-01-17T08:51:37.410Z,98899.75
2023-01-17T08:54:09.936Z,98895.34
2023-01-17T08:56:38.784Z,98898.03
2023-01-17T08:59:09.309Z,98885.81
2023-01-17T09:01:44.608Z,98878.88
2023-01-17T09:04:17.352Z,98884.13
2023-01-17T09:06:50.089Z,98889.38
2023-01-17T09:09:19.036Z,98888.50
2023-01-17T09:11:51.200Z,98888.50
2023-01-17T09:14:22.196Z,98884.97
2023-01-17T09:16:51.540Z,98876.16
2023-01-17T09:19:26.867Z,98872.69
2023-01-17T09:21:53.589Z,98872.72
2023-01-17T09:24:25.498Z,98866.69
2023-01-17T09:26:55.075Z,98882.44
2023-01-17T09:29:21.761Z,98870.22
2023-01-17T09:31:48.448Z,98867.66
2023-01-17T09:34:15.515Z,98858.03
2023-01-17T09:36:42.556Z,98858.88
2023-01-17T09:39:10.690Z,98857.06
2023-01-17T09:41:55.387Z,98856.22
2023-01-17T09:44:21.985Z,98839.66
2023-01-17T09:46:50.946Z,98834.44
2023-01-17T09:49:35.537Z,98837.91
2023-01-17T09:52:02.673Z,98823.94
2023-01-17T09:54:40.084Z,98822.19
2023-01-17T09:57:25.008Z,98812.66
2023-01-17T10:00:09.605Z,98804.03
2023-01-17T10:02:54.679Z,98816.31
2023-01-17T10:05:41.812Z,98805.00
2023-01-17T10:08:14.547Z,98806.69
2023-01-17T10:10:47.539Z,98799.72
2023-01-17T10:13:32.549Z,98796.94
2023-01-17T10:16:30.250Z,98789.03
2023-01-17T10:19:51.967Z,98775.88
2023-01-17T10:22:31.163Z,98765.38
2023-01-17T10:24:57.829Z,98772.34
2023-01-17T10:27:42.200Z,98772.28
2023-01-17T10:30:20.180Z,98762.66
2023-01-17T10:32:50.421Z,98753.94
2023-01-17T10:35:23.400Z,98749.50
2023-01-17T10:37:56.849Z,98754.69
2023-01-17T10:40:34.935Z,98735.38
2023-01-17T10:43:19.625Z,98727.50
2023-01-17T10:45:53.663Z,98725.81
2023-01-17T10:48:40.228Z,98714.41
2023-01-17T10:51:32.880Z,98708.31
2023-01-17T10:54:05.505Z,98710.94
2023-01-17T10:56:34.389Z,98709.19
2023-01-17T10:59:18.148Z,98710.06
2023-01-17T11:01:45.345Z,98695.31
2023-01-17T11:04:23.101Z,98687.50
2023-01-17T11:07:23.549Z,98678.78
2023-01-17T11:09:53.372Z,98675.41
2023-01-17T11:12:30.888Z,98663.31
2023-01-17T11:15:02.405Z,98656.56
2023-01-17T11:17:30.389Z,98659.31
2023-01-17T11:20:09.068Z,98652.53
2023-01-17T11:22:36.087Z,98656.19
2023-01-17T11:25:02.871Z,98655.53
2023-01-17T11:27:34.589Z,98651.31
2023-01-17T11:30:21.988Z,98634.00
2023-01-17T11:32:55.364Z,98636.75
2023-01-17T11:35:27.575Z,98633.34
2023-01-17T11:37:54.213Z,98616.84
2023-01-17T11:40:40.528Z,98616.06
2023-01-17T11:43:14.420Z,98611.72
2023-01-17T11:45:41.600Z,98600.47
2023-01-17T11:48:08.183Z,98597.16
2023-01-17T11:50:37.736Z,98595.59
2023-01-17T11:53:24.410Z,98594.91
2023-01-17T11:56:03.964Z,98589.00
2023-01-17T11:58:33.453Z,98583.22
2023-01-17T12:01:32.480Z,98576.50
2023-01-17T12:04:18.994Z,98562.75
2023-01-17T12:07:03.683Z,98560.34
2023-01-17T12:09:51.338Z,98555.34
2023-01-17T12:13:08.811Z,98554.72
2023-01-17T12:15:35.388Z,98551.38
2023-01-17T12:18:26.987Z,98542.78
2023-01-17T12:21:13.000Z,98544.78
2023-01-17T12:23:54.109Z,98537.13
2023-01-17T12:26:21.621Z,98526.00
2023-01-17T12:29:07.851Z,98519.09
2023-01-17T12:31:39.098Z,98518.25
2023-01-17T12:34:16.369Z,98526.16
2023-01-17T12:36:55.095Z,98518.41
2023-01-17T12:39:29.022Z,98514.03
2023-01-17T12:42:33.768Z,98507.09
2023-01-17T12:45:09.792Z,98496.72
2023-01-17T12:47:44.686Z,98507.19
2023-01-17T12:50:34.320Z,98497.69
2023-01-17T12:53:19.694Z,98507.28
2023-01-17T12:56:14.628Z,98492.66
2023-01-17T12:58:46.483Z,98492.78
2023-01-17T13:01:23.865Z,98471.94
2023-01-17T13:04:17.681Z,98472.91
2023-01-17T13:07:00.034Z,98474.66
2023-01-17T13:09:53.434Z,98478.19
2023-01-17T13:12:22.663Z,98472.13
2023-01-17T13:14:49.804Z,98462.50
2023-01-17T13:17:39.642Z,98462.56
2023-01-17T13:20:26.851Z,98459.94
2023-01-17T13:22:57.199Z,98464.31
2023-01-17T13:25:50.600Z,98463.50
2023-01-17T13:28:38.750Z,98451.31
2023-01-17T13:31:21.222Z,98438.28
2023-01-17T13:34:08.527Z,98442.69
2023-01-17T13:36:46.211Z,98436.50
2023-01-17T13:39:40.727Z,98435.56
2023-01-17T13:42:30.317Z,98425.06
2023-01-17T13:44:58.224Z,98432.91
2023-01-17T13:47:27.794Z,98432.97
2023-01-17T13:49:56.752Z,98426.91
2023-01-17T13:52:26.467Z,98419.88
2023-01-17T13:54:54.647Z,98416.34
2023-01-17T13:57:29.717Z,98411.94
2023-01-17T13:59:58.138Z,98403.16
2023-01-17T14:02:36.252Z,98399.66
2023-01-17T14:05:18.459Z,98391.88
2023-01-17T14:07:58.779Z,98394.47
2023-01-17T14:10:39.385Z,98391.97
2023-01-17T14:13:35.391Z,98388.53
2023-01-17T14:16:22.996Z,98385.78
2023-01-17T14:18:50.226Z,98391.03
2023-01-17T14:21:29.071Z,98375.34
2023-01-17T14:24:04.081Z,98383.97
2023-01-17T14:26:43.309Z,98387.38
2023-01-17T14:29:40.779Z,98382.16
2023-01-17T14:32:24.387Z,98386.44
2023-01-17T14:34:53.334Z,98381.22
2023-01-17T14:37:32.131Z,98379.50
2023-01-17T14:40:00.423Z,98382.94
2023-01-17T14:42:30.330Z,98382.03
2023-01-17T14:45:09.037Z,98388.06
2023-01-17T14:47:39.626Z,98388.84
2023-01-17T14:50:30.436Z,98394.78
2023-01-17T14:53:12.853Z,98393.94
2023-01-17T14:55:48.408Z,98393.84
2023-01-17T14:58:42.217Z,98386.91
2023-01-17T15:01:17.824Z,98384.34
2023-01-17T15:03:48.044Z,98374.72
2023-01-17T15:06:23.000Z,98374.72
2023-01-17T15:08:54.190Z,98370.31
2023-01-17T15:11:25.989Z,98367.63
2023-01-17T15:13:57.502Z,98369.25
2023-01-17T15:16:25.883Z,98360.53
2023-01-17T15:18:53.926Z,98361.38
2023-01-17T15:21:28.294Z,98359.53
2023-01-17T15:23:57.900Z,98361.09
2023-01-17T15:26:27.391Z,98359.25
2023-01-17T15:29:06.549Z,98354.88
2023-01-17T15:31:54.211Z,98355.50
2023-01-17T15:34:29.839Z,98346.75
2023-01-17T15:37:00.601Z,98350.13
2023-01-17T15:39:33.993Z,98350.03
2023-01-17T15:42:06.445Z,98353.47
2023-01-17T15:44:47.989Z,98344.59
2023-01-17T15:47:50.420Z,98340.19
2023-01-17T15:50:20.050Z,98334.81
2023-01-17T15:52:55.942Z,98343.44
2023-01-17T15:55:28.831Z,98348.63
2023-01-17T15:57:55.535Z,98345.94
2023-01-17T16:00:37.718Z,98348.44
2023-01-17T16:03:22.459Z,98350.13
2023-01-17T16:05:50.031Z,98351.84
2023-01-17T16:08:16.628Z,98351.72
2023-01-17T16:10:44.442Z,98349.03
2023-01-17T16:13:13.680Z,98351.59
2023-01-17T16:15:43.497Z,98348.81
2023-01-17T16:18:16.734Z,98354.94
2023-01-17T16:20:48.650Z,98344.38
2023-01-17T16:23:15.388Z,98345.22
2023-01-17T16:25:42.225Z,98344.25
2023-01-17T16:28:08.863Z,98335.47
2023-01-17T16:30:36.178Z,98342.34
2023-01-17T16:33:04.015Z,98332.88
2023-01-17T16:35:33.481Z,98332.75
2023-01-17T16:38:02.695Z,98337.00
2023-01-17T16:40:32.270Z,98336.91
2023-01-17T16:43:00.652Z,98333.41
2023-01-17T16:45:27.639Z,98338.66
2023-01-17T16:47:54.697Z,98340.34
2023-01-17T16:50:23.813Z,98340.34
2023-01-17T16:52:57.192Z,98335.91
2023-01-17T16:55:25.591Z,98335.75
2023-01-17T16:57:54.208Z,98331.38
2023-01-17T17:00:25.710Z,98333.06
2023-01-17T17:03:07.403Z,98342.63
2023-01-17T17:05:34.284Z,98327.75
2023-01-17T17:08:07.983Z,98329.41
2023-01-17T17:10:34.646Z,98326.72
2023-01-17T17:13:02.886Z,98327.63
2023-01-17T17:15:29.925Z,98325.09
2023-01-17T17:17:56.600Z,98326.78
2023-01-17T17:20:25.173Z,98318.94
2023-01-17T17:22:52.307Z,98317.94
2023-01-17T17:25:19.273Z,98316.19
2023-01-17T17:27:56.190Z,98312.63
2023-01-17T17:30:22.895Z,98307.41
2023-01-17T17:32:49.589Z,98315.97
2023-01-17T17:35:16.303Z,98316.75
2023-01-17T17:37:42.946Z,98316.75
2023-01-17T17:40:10.327Z,98297.50
2023-01-17T17:42:37.032Z,98305.38
2023-01-17T17:45:03.915Z,98304.47
2023-01-17T17:47:30.638Z,98302.59
2023-01-17T17:49:57.358Z,98306.91
2023-01-17T17:52:24.124Z,98304.16
2023-01-17T17:54:50.770Z,98307.59
2023-01-17T17:57:17.420Z,98305.75
2023-01-17T17:59:44.053Z,98303.91
2023-01-17T18:02:13.255Z,98298.66
2023-01-17T18:04:39.960Z,98290.66
2023-01-17T18:07:06.680Z,98304.56
2023-01-17T18:09:33.462Z,98295.78
2023-01-17T18:12:00.435Z,98299.19
2023-01-17T18:14:27.246Z,98295.56
2023-01-17T18:16:55.755Z,98298.13
2023-01-17T18:19:25.667Z,98295.38
2023-01-17T18:21:53.048Z,98295.28
2023-01-17T18:24:22.380Z,98296.00
2023-01-17T18:26:51.465Z,98289.91
2023-01-17T18:29:20.883Z,98300.25
2023-01-17T18:31:50.164Z,98292.31
2023-01-17T18:34:24.222Z,98291.31
2023-01-17T18:36:51.809Z,98292.03
2023-01-17T18:39:21.339Z,98298.06
2023-01-17T18:41:49.281Z,98297.13
2023-01-17T18:44:16.006Z,98292.59
2023-01-17T18:46:43.370Z,98291.63
2023-01-17T18:49:16.438Z,98295.88
2023-01-17T18:51:46.670Z,98298.41
2023-01-17T18:54:13.659Z,98291.34
2023-01-17T18:56:40.490Z,98299.13
2023-01-17T18:59:07.378Z,98297.28
2023-01-17T19:01:35.977Z,98287.56
2023-01-17T19:04:05.304Z,98289.19
2023-01-17T19:06:40.566Z,98279.50
2023-01-17T19:09:08.286Z,98282.88
2023-01-17T19:11:36.279Z,98283.66
2023-01-17T19:14:04.026Z,98278.28
2023-01-17T19:16:34.761Z,98280.81
2023-01-17T19:19:04.793Z,98285.06
2023-01-17T19:21:31.758Z,98282.38
2023-01-17T19:23:59.417Z,98281.38
2023-01-17T19:26:27.574Z,98281.38
2023-01-17T19:28:56.367Z,98282.16
2023-01-17T19:31:35.968Z,98281.22
2023-01-17T19:34:02.757Z,98278.59
2023-01-17T19:36:34.454Z,98282.03
2023-01-17T19:39:05.601Z,98279.22
2023-01-17T19:41:35.308Z,98280.94
2023-01-17T19:44:07.262Z,98280.09
2023-01-17T19:46:34.944Z,98279.16
2023-01-17T19:49:02.676Z,98281.69
2023-01-17T19:51:29.950Z,98287.72
2023-01-17T19:53:59.894Z,98287.59
2023-01-17T19:56:27.703Z,98288.44
2023-01-17T19:58:54.587Z,98288.34
2023-01-17T20:01:25.316Z,98293.53
2023-01-17T20:03:52.528Z,98286.59
2023-01-17T20:06:21.972Z,98284.72
2023-01-17T20:08:48.931Z,98293.38
2023-01-17T20:11:21.276Z,98290.66
2023-01-17T20:13:50.918Z,98289.78
2023-01-17T20:16:18.309Z,98288.00
2023-01-17T20:18:45.786Z,98287.06
2023-01-17T20:21:18.444Z,98290.53
2023-01-17T20:23:50.124Z,98285.13
2023-01-17T20:26:36.979Z,98285.13
2023-01-17T20:29:07.462Z,98290.38
2023-01-17T20:31:38.154Z,98296.41
2023-01-17T20:34:06.300Z,98284.13
2023-01-17T20:36:33.260Z,98281.44
2023-01-17T20:39:00.942Z,98283.31
2023-01-17T20:41:33.802Z,98280.59
2023-01-17T20:44:01.864Z,98282.38
2023-01-17T20:46:40.410Z,98278.81
2023-01-17T20:49:16.074Z,98277.03
2023-01-17T20:51:44.466Z,98277.88
2023-01-17T20:54:14.462Z,98278.81
2023-01-17T20:56:41.771Z,98278.75
2023-01-17T20:59:13.050Z,98284.84
2023-01-17T21:01:39.930Z,98285.69
2023-01-17T21:04:10.183Z,98286.53
2023-01-17T21:06:39.742Z,98287.31
2023-01-17T21:09:08.731Z,98289.94
2023-01-17T21:11:37.000Z,98285.44
2023-01-17T21:14:05.961Z,98285.44
2023-01-17T21:16:34.233Z,98285.38
2023-01-17T21:19:01.934Z,98294.09
2023-01-17T21:21:29.625Z,98291.38
2023-01-17T21:23:59.140Z,98290.47
2023-01-17T21:26:28.230Z,98296.56
2023-01-17T21:28:55.435Z,98287.78
2023-01-17T21:31:25.910Z,98290.34
2023-01-17T21:34:01.417Z,98282.47
2023-01-17T21:36:30.862Z,98278.06
2023-01-17T21:38:59.257Z,98274.50
2023-01-17T21:41:28.795Z,98272.72
2023-01-17T21:43:57.349Z,98277.03
2023-01-17T21:46:24.745Z,98267.41
2023-01-17T21:48:51.438Z,98278.66
2023-01-17T21:51:19.651Z,98267.22
2023-01-17T21:53:46.412Z,98268.16
2023-01-17T21:56:32.862Z,98267.22
2023-01-17T21:59:01.902Z,98265.47
2023-01-17T22:01:32.303Z,98266.31
2023-01-17T22:04:02.868Z,98272.31
2023-01-17T22:06:43.465Z,98272.31
2023-01-17T22:09:12.586Z,98276.66
2023-01-17T22:11:44.624Z,98270.50
2023-01-17T22:14:14.472Z,98267.78
2023-01-17T22:16:41.181Z,98271.28
2023-01-17T22:19:12.495Z,98272.03
2023-01-17T22:21:39.151Z,98266.72
2023-01-17T22:24:08.934Z,98265.78
2023-01-17T22:26:41.992Z,98272.66
2023-01-17T22:29:13.092Z,98267.41
2023-01-17T22:31:39.844Z,98270.78
2023-01-17T22:34:06.476Z,98272.50
2023-01-17T22:36:35.417Z,98265.53
2023-01-17T22:39:02.144Z,98262.91
2023-01-17T22:41:31.285Z,98260.28
2023-01-17T22:43:59.823Z,98259.28
2023-01-17T22:46:29.585Z,98262.75
2023-01-17T22:49:01.061Z,98258.28
2023-01-17T22:51:32.011Z,98255.50
2023-01-17T22:54:03.559Z,98250.25
2023-01-17T22:56:32.781Z,98254.56
2023-01-17T22:59:01.074Z,98255.50
2023-01-17T23:01:36.322Z,98254.47
2023-01-17T23:04:05.038Z,98252.72
2023-01-17T23:06:34.477Z,98261.34
2023-01-17T23:09:10.006Z,98261.34
2023-01-17T23:11:39.647Z,98255.25
2023-01-17T23:14:24.825Z,98264.81
2023-01-17T23:17:18.525Z,98254.41
2023-01-17T23:19:51.140Z,98248.31
2023-01-17T23:22:29.088Z,98255.34
2023-01-17T23:25:06.547Z,98252.72
2023-01-17T23:28:00.699Z,98254.47
2023-01-17T23:30:54.633Z,98254.56
2023-01-17T23:33:21.279Z,98255.34
2023-01-17T23:35:47.992Z,98252.72
2023-01-17T23:38:33.987Z,98251.78
2023-01-17T23:41:24.565Z,98246.53
2023-01-17T23:43:56.826Z,98246.59
2023-01-17T23:46:25.431Z,98256.25
2023-01-17T23:48:52.286Z,98266.75
2023-01-17T23:51:19.021Z,98253.72
2023-01-17T23:53:45.689Z,98251.94
2023-01-17T23:56:21.798Z,98260.75
2023-01-17T23:58:49.051Z,98258.88
